Time;durP1;ratioP1;P1;durP2;ratioP2;P2;SDS_P1;SDS_P2;PMS_P1;PMS_P2;Temp;Humidity;BMP_temperature;BMP_pressure;BME280_temperature;BME280_humidity;BME280_pressure;Samples;Min_cycle;Max_cycle;Signal;HPM_P1;HPM_P2
2022/08/08 00:00:48;;;;;;;1.05;0.70;;;;;;;14.74;61.02;99092.03;5047023;28;20026;-71
2022/08/08 00:03:24;;;;;;;0.52;0.50;;;;;;;14.79;59.86;99087.56;5045439;28;20060;-71
2022/08/08 00:05:59;;;;;;;1.33;0.82;;;;;;;14.84;59.57;99090.44;5040943;28;20150;-70
2022/08/08 00:08:32;;;;;;;1.77;0.70;;;;;;;15.00;59.89;99088.22;5038994;28;20028;-71
2022/08/08 00:11:07;;;;;;;1.77;0.80;;;;;;;14.95;60.27;99080.69;5040773;28;20028;-71
2022/08/08 00:13:50;;;;;;;1.30;0.88;;;;;;;15.02;59.98;99086.09;5045921;28;20771;-71
2022/08/08 00:16:22;;;;;;;2.08;0.70;;;;;;;15.05;59.78;99080.19;5045010;28;20036;-71
2022/08/08 00:19:10;;;;;;;0.93;0.57;;;;;;;14.92;60.13;99092.06;5021789;28;20050;-71
2022/08/08 00:22:02;;;;;;;0.93;0.60;;;;;;;14.81;60.35;99082.72;5047245;28;20028;-71
2022/08/08 00:24:35;;;;;;;1.92;0.75;;;;;;;14.52;60.94;99069.78;5030904;28;20065;-72
2022/08/08 00:27:05;;;;;;;0.85;0.60;;;;;;;14.42;61.26;99075.72;5041303;28;20490;-71
2022/08/08 00:30:10;;;;;;;1.25;0.70;;;;;;;14.30;62.11;99082.91;5047563;28;20098;-71
2022/08/08 00:32:51;;;;;;;1.63;1.35;;;;;;;14.43;60.71;99086.34;4961100;28;20069;-71
2022/08/08 00:35:40;;;;;;;0.77;0.68;;;;;;;14.42;59.90;99070.25;4965328;28;20081;-71
2022/08/08 00:38:20;;;;;;;;;;;;;;;14.54;59.60;99084.00;5018878;28;20033;-71
2022/08/08 00:41:04;;;;;;;2.95;0.85;;;;;;;14.44;59.25;99087.22;5047856;28;19912;-71
2022/08/08 00:44:00;;;;;;;1.70;0.85;;;;;;;14.40;62.82;99086.81;5046158;28;20379;-71
2022/08/08 00:46:55;;;;;;;0.90;0.70;;;;;;;14.34;63.60;99081.44;5040410;28;20116;-71
2022/08/08 00:49:52;;;;;;;0.80;0.60;;;;;;;14.37;63.23;99078.25;5044349;28;20025;-71
2022/08/08 00:52:29;;;;;;;1.20;0.82;;;;;;;14.18;65.83;99089.06;5045541;28;20063;-72
2022/08/08 00:55:19;;;;;;;1.42;0.80;;;;;;;14.14;67.40;99096.00;5045802;28;20021;-71
2022/08/08 00:58:15;;;;;;;1.75;0.80;;;;;;;14.12;66.79;99089.09;5030346;28;20229;-71
2022/08/08 01:00:56;;;;;;;1.27;0.70;;;;;;;14.07;66.46;99095.22;5026387;28;20556;-71
2022/08/08 01:03:27;;;;;;;1.73;0.90;;;;;;;14.01;67.13;99104.25;5046237;28;20051;-71
2022/08/08 01:06:01;;;;;;;0.75;0.65;;;;;;;13.91;68.11;99099.28;5045580;28;20029;-71
2022/08/08 01:09:11;;;;;;;2.03;1.05;;;;;;;13.94;68.76;99095.31;5048082;28;20025;-72
2022/08/08 01:12:12;;;;;;;2.38;0.88;;;;;;;14.20;67.42;99097.84;5003034;28;20045;-71
2022/08/08 01:14:49;;;;;;;1.10;0.80;;;;;;;14.16;66.78;99107.50;5048819;28;20076;-72
2022/08/08 01:17:34;;;;;;;4.60;0.90;;;;;;;14.05;67.29;99102.75;5044987;28;20501;-71
2022/08/08 01:20:23;;;;;;;1.20;0.70;;;;;;;14.03;68.13;99093.97;5038363;28;20025;-71
2022/08/08 01:23:05;;;;;;;;;;;;;;;14.23;66.67;99102.84;5042955;28;20112;-70
2022/08/08 01:25:58;;;;;;;2.00;0.98;;;;;;;14.35;65.57;99102.13;5043919;28;19924;-71
2022/08/08 01:29:01;;;;;;;1.70;1.20;;;;;;;14.39;65.01;99092.50;5045191;28;20597;-70
2022/08/08 01:32:04;;;;;;;0.93;0.80;;;;;;;14.44;64.26;99100.84;5037623;28;20429;-70
2022/08/08 01:34:50;;;;;;;1.75;0.98;;;;;;;14.42;64.55;99101.03;5045052;28;20029;-71
2022/08/08 01:37:37;;;;;;;2.05;1.00;;;;;;;14.36;64.90;99104.66;5041752;28;20032;-71
2022/08/08 01:40:40;;;;;;;4.32;1.00;;;;;;;14.22;66.50;99098.44;5028799;28;20086;-71
2022/08/08 01:43:46;;;;;;;2.28;0.98;;;;;;;13.95;68.67;99107.84;5045928;28;20051;-72
2022/08/08 01:46:42;;;;;;;1.08;0.80;;;;;;;13.78;70.06;99107.50;4945335;28;20083;-71
2022/08/08 01:49:20;;;;;;;1.92;0.93;;;;;;;13.66;70.06;99099.19;4960307;28;20035;-70
2022/08/08 01:51:55;;;;;;;1.38;0.90;;;;;;;13.52;69.64;99103.03;5023415;28;20044;-71
2022/08/08 01:54:43;;;;;;;3.78;0.82;;;;;;;13.51;70.03;99110.31;5045836;28;20039;-71
2022/08/08 01:57:27;;;;;;;2.83;1.25;;;;;;;13.50;70.16;99105.13;5040965;28;20071;-71
2022/08/08 01:59:59;;;;;;;0.98;0.82;;;;;;;13.47;70.25;99108.28;5026656;28;20025;-71
2022/08/08 02:02:40;;;;;;;1.58;1.13;;;;;;;13.42;71.29;99106.19;5048840;28;20515;-71
2022/08/08 02:05:14;;;;;;;1.10;0.82;;;;;;;13.44;70.82;99116.84;5050715;28;20368;-72
2022/08/08 02:07:57;;;;;;;1.80;1.15;;;;;;;13.40;72.25;99115.63;5028741;28;21164;-71
2022/08/08 02:10:44;;;;;;;0.90;0.70;;;;;;;13.30;73.04;99119.59;5045224;28;20525;-71
2022/08/08 02:13:23;;;;;;;2.88;0.90;;;;;;;13.22;73.88;99108.94;5047657;28;20032;-70
2022/08/08 02:16:07;;;;;;;1.20;0.80;;;;;;;13.09;74.72;99122.53;5044767;28;20249;-70
2022/08/08 02:18:42;;;;;;;1.30;0.80;;;;;;;13.21;73.26;99118.13;5040055;28;20055;-70
2022/08/08 02:24:22;;;;;;;3.10;1.00;;;;;;;13.39;73.98;99114.78;5017162;28;20449;-70
2022/08/08 02:27:16;;;;;;;5.25;1.00;;;;;;;13.41;74.77;99114.56;5043486;28;20090;-70
2022/08/08 02:30:05;;;;;;;1.20;0.90;;;;;;;13.13;75.54;99102.91;5038995;28;20095;-70
2022/08/08 02:32:40;;;;;;;5.47;1.05;;;;;;;13.13;76.77;99112.94;5042430;28;20060;-70
2022/08/08 02:35:28;;;;;;;1.92;1.30;;;;;;;13.11;76.18;99115.03;5042707;28;20021;-70
2022/08/08 02:38:15;;;;;;;3.28;1.33;;;;;;;12.90;76.50;99111.50;5046652;28;20025;-70
2022/08/08 02:40:57;;;;;;;4.70;1.20;;;;;;;12.74;77.48;99106.50;5041917;28;20064;-70
2022/08/08 02:43:37;;;;;;;1.05;0.95;;;;;;;12.68;78.75;99110.03;5040247;28;20382;-71
2022/08/08 02:46:08;;;;;;;2.58;0.95;;;;;;;12.74;78.65;99111.94;5040391;28;20107;-71
2022/08/08 02:48:52;;;;;;;3.60;1.23;;;;;;;12.77;77.84;99113.41;5043548;28;20048;-71
2022/08/08 02:51:36;;;;;;;1.25;0.90;;;;;;;12.72;79.75;99119.47;5071614;22;20050;-74
2022/08/08 02:54:23;;;;;;;1.77;0.88;;;;;;;12.67;81.48;99117.34;5090020;28;20028;-74
2022/08/08 02:57:13;;;;;;;1.88;1.20;;;;;;;12.64;81.62;99111.53;5106770;28;20046;-74
2022/08/08 02:59:47;;;;;;;1.25;0.88;;;;;;;12.46;81.95;99118.41;5091847;28;20360;-74
2022/08/08 03:02:33;;;;;;;1.52;1.10;;;;;;;12.36;82.76;99125.28;5084195;28;20057;-74
2022/08/08 03:05:23;;;;;;;2.42;1.67;;;;;;;12.45;82.58;99130.31;5093509;28;20030;-74
2022/08/08 03:08:19;;;;;;;9.73;1.45;;;;;;;12.52;81.21;99124.88;5100578;28;20035;-74
2022/08/08 03:11:12;;;;;;;1.85;1.10;;;;;;;12.55;79.91;99129.03;5108499;28;20117;-75
2022/08/08 03:13:52;;;;;;;3.45;1.00;;;;;;;12.48;80.51;99120.91;5092184;28;20016;-74
2022/08/08 03:16:31;;;;;;;4.07;1.13;;;;;;;12.36;80.84;99130.72;5113301;28;20054;-74
2022/08/08 03:19:18;;;;;;;1.60;1.10;;;;;;;12.38;82.03;99129.47;5080074;28;20047;-74
2022/08/08 03:21:43;;;;;;;4.28;1.10;;;;;;;12.50;80.25;99138.66;5092273;28;20035;-73
2022/08/08 03:24:09;;;;;;;1.45;1.15;;;;;;;12.38;80.50;99129.47;5112163;28;20480;-75
2022/08/08 03:26:41;;;;;;;3.13;1.30;;;;;;;12.44;81.75;99134.06;5118497;28;20075;-74
2022/08/08 03:29:10;;;;;;;2.97;1.23;;;;;;;12.27;82.57;99143.66;5118131;28;20028;-74
2022/08/08 03:34:20;;;;;;;1.75;1.30;;;;;;;12.14;86.39;99124.63;5131635;28;20031;-74
2022/08/08 03:36:45;;;;;;;2.30;1.17;;;;;;;11.98;86.52;99113.13;5110575;28;20163;-73
2022/08/08 03:39:12;;;;;;;5.05;1.42;;;;;;;12.06;86.35;99145.47;5105290;28;20042;-74
2022/08/08 03:41:38;;;;;;;2.50;1.30;;;;;;;12.11;86.31;99150.28;5102887;28;20024;-74
2022/08/08 03:44:04;;;;;;;6.20;1.50;;;;;;;12.01;84.02;99123.56;5092445;28;20073;-67
2022/08/08 03:46:29;;;;;;;5.05;1.65;;;;;;;12.07;85.27;99160.69;5102462;28;20027;-67
2022/08/08 03:49:00;;;;;;;2.83;1.50;;;;;;;11.99;86.08;99160.88;5084487;28;20112;-68
2022/08/08 03:51:26;;;;;;;6.70;1.90;;;;;;;11.89;87.57;99156.88;5102017;27;20111;-68
2022/08/08 03:53:53;;;;;;;7.57;1.75;;;;;;;11.90;90.17;99159.41;5104553;28;20106;-68
2022/08/08 03:56:20;;;;;;;5.55;1.77;;;;;;;11.95;91.01;99158.81;5110000;27;20030;-69
2022/08/08 03:58:49;;;;;;;2.40;1.60;;;;;;;11.98;91.77;99155.69;5084175;28;20043;-66
2022/08/08 04:01:15;;;;;;;4.10;1.52;;;;;;;11.90;91.98;99148.56;5101364;28;20058;-69
2022/08/08 04:03:45;;;;;;;4.95;1.60;;;;;;;12.02;91.19;99165.88;5113637;27;20023;-69
2022/08/08 04:06:12;;;;;;;1.92;1.08;;;;;;;11.97;90.82;99159.41;5107841;27;20047;-70
2022/08/08 04:08:38;;;;;;;1.88;1.35;;;;;;;11.94;91.85;99157.94;5109366;28;20031;-69
2022/08/08 04:11:04;;;;;;;8.38;1.25;;;;;;;11.97;92.10;99157.56;5087886;28;20040;-68
2022/08/08 04:13:30;;;;;;;3.25;1.30;;;;;;;12.05;91.04;99164.66;5107108;28;20514;-68
2022/08/08 04:15:55;;;;;;;1.50;1.23;;;;;;;12.07;90.76;99154.44;5110807;28;20019;-67
2022/08/08 04:18:21;;;;;;;3.53;1.52;;;;;;;12.07;88.34;99168.81;5090395;28;20016;-68
2022/08/08 04:20:46;;;;;;;1.10;1.00;;;;;;;11.78;86.15;99117.59;5101623;27;20031;-68
2022/08/08 04:23:11;;;;;;;1.20;0.90;;;;;;;12.07;84.84;99171.53;5090751;28;20027;-67
2022/08/08 04:25:37;;;;;;;1.77;1.17;;;;;;;12.16;85.97;99168.66;5107496;28;20107;-67
2022/08/08 04:28:03;;;;;;;1.65;0.80;;;;;;;12.01;85.15;99145.25;5101897;28;20027;-68
2022/08/08 04:30:28;;;;;;;2.38;1.40;;;;;;;11.98;85.69;99142.13;5106130;27;21227;-68
2022/08/08 04:32:54;;;;;;;2.08;1.10;;;;;;;12.22;84.53;99179.53;5107375;27;20084;-66
2022/08/08 04:35:20;;;;;;;1.48;0.68;;;;;;;12.28;82.84;99178.69;5108734;27;20504;-66
2022/08/08 04:37:45;;;;;;;1.88;0.90;;;;;;;12.35;83.51;99184.16;5093971;28;20016;-66
2022/08/08 04:40:11;;;;;;;2.05;0.80;;;;;;;12.03;83.34;99139.63;5103591;28;20473;-66
2022/08/08 04:42:37;;;;;;;2.00;1.02;;;;;;;12.42;83.47;99201.28;5105215;28;20027;-70
2022/08/08 04:45:04;;;;;;;6.22;1.30;;;;;;;12.50;83.18;99192.94;5104642;28;20019;-69
2022/08/08 04:47:29;;;;;;;2.88;1.00;;;;;;;12.58;82.58;99201.94;5109045;27;20057;-67
2022/08/08 04:49:55;;;;;;;2.78;1.20;;;;;;;12.42;83.03;99197.75;5083207;28;20032;-73
2022/08/08 04:52:20;;;;;;;1.70;1.02;;;;;;;12.50;82.85;99203.81;5095222;28;20036;-66
2022/08/08 04:54:45;;;;;;;4.07;1.50;;;;;;;12.28;83.51;99175.97;5110723;27;20032;-69
2022/08/08 04:57:11;;;;;;;2.60;1.48;;;;;;;12.54;84.26;99215.06;5108078;28;20023;-68
2022/08/08 04:59:38;;;;;;;3.55;1.70;;;;;;;12.62;83.32;99203.19;5086163;28;20412;-67
2022/08/08 05:02:03;;;;;;;4.53;2.08;;;;;;;12.75;82.19;99219.47;5106414;28;20024;-65
2022/08/08 05:04:28;;;;;;;3.30;1.90;;;;;;;12.83;81.89;99213.03;5103284;27;20062;-69
2022/08/08 05:06:54;;;;;;;1.98;1.13;;;;;;;12.96;80.89;99225.78;5090899;28;20544;-65
2022/08/08 05:09:19;;;;;;;3.97;1.48;;;;;;;12.91;79.58;99204.66;5110099;28;20119;-69
2022/08/08 05:11:44;;;;;;;3.85;1.30;;;;;;;13.18;76.19;99219.09;5108831;28;20119;-70
2022/08/08 05:14:10;;;;;;;3.33;1.88;;;;;;;13.26;75.37;99220.75;5089503;28;20423;-73
2022/08/08 05:16:36;;;;;;;2.10;1.40;;;;;;;13.37;74.22;99218.25;5108299;28;20024;-69
2022/08/08 05:19:02;;;;;;;5.60;1.60;;;;;;;13.39;72.98;99207.19;5105006;28;20041;-69
2022/08/08 05:21:27;;;;;;;1.83;1.35;;;;;;;13.56;72.88;99213.00;5100496;27;20054;-66
2022/08/08 05:23:53;;;;;;;1.98;1.30;;;;;;;13.53;72.85;99218.88;5114989;28;20019;-69
2022/08/08 05:26:19;;;;;;;2.25;1.25;;;;;;;13.64;71.55;99215.47;5104924;28;20031;-69
2022/08/08 05:28:44;;;;;;;1.98;1.10;;;;;;;13.82;70.67;99217.53;5106729;28;20093;-70
2022/08/08 05:31:11;;;;;;;3.50;1.70;;;;;;;14.01;68.88;99199.47;5097126;28;20532;-69
2022/08/08 05:33:37;;;;;;;5.90;1.50;;;;;;;14.25;68.04;99215.06;5104255;28;20031;-70
2022/08/08 05:36:03;;;;;;;2.67;1.15;;;;;;;14.61;66.32;99215.50;5091595;28;20084;-69
2022/08/08 05:38:29;;;;;;;1.90;1.35;;;;;;;14.81;65.74;99226.28;5089129;28;20016;-70
2022/08/08 05:40:57;;;;;;;1.35;0.93;;;;;;;15.13;63.90;99235.22;5091094;28;20366;-68
2022/08/08 05:43:31;;;;;;;2.40;1.05;;;;;;;15.31;63.36;99231.72;5102916;28;20059;-70
2022/08/08 05:45:58;;;;;;;6.28;1.08;;;;;;;15.63;61.69;99229.72;5109737;28;20028;-71
2022/08/08 05:48:24;;;;;;;1.15;1.00;;;;;;;15.86;60.55;99222.81;5106373;28;20019;-69
2022/08/08 05:50:50;;;;;;;1.08;0.80;;;;;;;16.23;58.79;99230.97;5106328;28;20027;-70
2022/08/08 05:53:26;;;;;;;2.53;0.98;;;;;;;16.42;57.51;99238.88;5100336;28;20031;-72
2022/08/08 05:55:54;;;;;;;1.20;1.00;;;;;;;16.60;56.90;99213.44;5105369;28;20039;-70
2022/08/08 05:58:19;;;;;;;2.47;1.27;;;;;;;16.90;56.05;99233.63;5086444;28;20126;-75
2022/08/08 06:00:48;;;;;;;2.20;1.08;;;;;;;16.96;55.17;99222.59;5093631;28;20151;-72
2022/08/08 06:03:15;;;;;;;1.90;0.80;;;;;;;17.33;54.57;99218.84;5083212;28;20050;-70
2022/08/08 06:05:49;;;;;;;1.17;1.05;;;;;;;17.45;54.19;99241.56;5090087;28;20059;-69
2022/08/08 06:08:22;;;;;;;1.65;1.10;;;;;;;17.54;53.75;99212.78;5083300;28;20032;-70
2022/08/08 06:10:48;;;;;;;2.65;1.42;;;;;;;17.85;53.17;99241.69;5082234;28;20028;-68
2022/08/08 06:13:14;;;;;;;2.03;1.30;;;;;;;18.12;52.67;99244.72;5100369;28;20121;-68
2022/08/08 06:15:42;;;;;;;2.25;1.15;;;;;;;18.28;51.87;99225.88;5099082;28;20112;-68
2022/08/08 06:18:09;;;;;;;2.00;1.40;;;;;;;18.71;51.16;99243.69;5088444;28;20026;-67
2022/08/08 06:20:35;;;;;;;1.25;1.00;;;;;;;19.29;50.12;99245.28;5106365;28;20098;-67
2022/08/08 06:23:00;;;;;;;1.20;0.90;;;;;;;20.16;48.14;99232.00;5098416;28;20133;-68
2022/08/08 06:25:26;;;;;;;1.50;0.98;;;;;;;21.14;46.26;99254.81;5088633;28;20063;-69
2022/08/08 06:27:55;;;;;;;1.15;0.70;;;;;;;22.65;43.01;99242.50;5107448;28;20066;-70
2022/08/08 06:30:21;;;;;;;2.35;0.90;;;;;;;24.35;39.55;99225.53;5103148;28;20030;-67
2022/08/08 06:32:48;;;;;;;2.80;0.90;;;;;;;26.43;35.83;99237.91;5097373;28;20027;-67
2022/08/08 06:35:14;;;;;;;1.85;0.95;;;;;;;28.00;33.02;99246.03;5106459;28;20023;-67
2022/08/08 06:37:47;;;;;;;1.33;1.00;;;;;;;29.33;31.49;99245.91;5087561;28;20036;-67
2022/08/08 06:40:16;;;;;;;0.95;0.80;;;;;;;29.81;30.21;99248.03;5097326;28;20158;-70
2022/08/08 06:42:49;;;;;;;3.80;1.20;;;;;;;28.88;31.22;99250.63;5103885;28;20499;-70
2022/08/08 06:45:15;;;;;;;1.30;0.95;;;;;;;29.92;29.87;99249.44;5095250;28;20113;-70
2022/08/08 06:47:41;;;;;;;3.58;1.10;;;;;;;30.51;29.21;99248.34;5097009;28;20019;-71
2022/08/08 06:50:08;;;;;;;1.73;1.13;;;;;;;30.80;28.43;99259.72;5112046;28;20045;-71
2022/08/08 06:52:34;;;;;;;8.80;1.20;;;;;;;31.22;27.88;99240.53;5109696;28;20161;-68
2022/08/08 06:55:00;;;;;;;5.38;1.48;;;;;;;32.04;27.36;99246.16;5106989;28;20111;-69
2022/08/08 06:57:25;;;;;;;6.07;1.48;;;;;;;32.31;26.83;99238.47;5111166;27;20032;-70
2022/08/08 06:59:52;;;;;;;11.40;1.33;;;;;;;33.51;25.43;99248.28;5108631;28;20549;-68
2022/08/08 07:02:23;;;;;;;9.55;1.00;;;;;;;33.21;25.99;99254.03;5108909;27;20115;-70
2022/08/08 07:04:57;;;;;;;13.25;1.23;;;;;;;32.69;26.32;99266.44;5111248;28;20034;-70
2022/08/08 07:07:38;;;;;;;5.38;1.00;;;;;;;32.79;26.35;99262.41;5087399;28;20023;-70
2022/08/08 07:10:05;;;;;;;3.70;1.00;;;;;;;32.51;27.07;99257.34;5100231;28;20392;-70
2022/08/08 07:12:40;;;;;;;6.72;1.00;;;;;;;34.17;25.76;99267.13;5106293;28;20028;-71
2022/08/08 07:15:13;;;;;;;7.75;0.90;;;;;;;35.57;24.34;99255.38;5105999;28;20552;-69
2022/08/08 07:17:47;;;;;;;0.85;0.63;;;;;;;36.72;23.17;99255.53;5099876;28;20026;-71
2022/08/08 07:20:19;;;;;;;2.60;0.90;;;;;;;36.25;22.49;99257.22;5100732;27;20027;-71
2022/08/08 07:23:19;;;;;;;2.65;0.80;;;;;;;36.50;22.63;99262.63;5103464;28;20493;-75
2022/08/08 07:25:48;;;;;;;4.85;0.90;;;;;;;36.23;23.01;99251.13;5116255;28;20392;-69
2022/08/08 07:28:15;;;;;;;0.90;0.60;;;;;;;36.57;23.01;99271.28;5109334;28;20027;-69
2022/08/08 07:30:41;;;;;;;3.13;0.98;;;;;;;35.59;24.01;99258.69;5112177;27;20409;-69
2022/08/08 07:33:11;;;;;;;3.78;0.80;;;;;;;35.45;23.97;99259.09;5106879;28;20038;-68
2022/08/08 07:35:37;;;;;;;1.45;0.80;;;;;;;35.80;23.75;99260.44;5109295;28;20170;-68
2022/08/08 07:38:03;;;;;;;0.93;0.70;;;;;;;36.57;23.33;99260.03;5106828;28;20097;-68
2022/08/08 07:40:28;;;;;;;1.10;0.70;;;;;;;36.75;23.32;99257.63;5107856;28;20127;-68
2022/08/08 07:42:54;;;;;;;1.00;0.68;;;;;;;37.27;22.63;99262.81;5104758;28;20392;-68
2022/08/08 07:45:22;;;;;;;2.20;0.75;;;;;;;37.74;22.23;99262.97;5108224;28;20108;-68
2022/08/08 07:47:48;;;;;;;1.65;0.70;;;;;;;36.80;22.97;99258.16;5092726;28;20028;-68
2022/08/08 07:50:13;;;;;;;2.83;0.70;;;;;;;35.82;23.94;99263.69;5108234;28;20035;-68
2022/08/08 07:52:43;;;;;;;1.92;0.70;;;;;;;36.01;23.87;99261.00;5086396;28;20068;-67
2022/08/08 07:55:08;;;;;;;1.50;0.70;;;;;;;37.27;22.69;99265.63;5102542;27;20035;-70
2022/08/08 07:57:46;;;;;;;2.60;0.90;;;;;;;37.09;23.47;99260.81;5101566;28;20020;-70
2022/08/08 08:00:13;;;;;;;6.90;0.90;;;;;;;37.81;22.82;99260.25;5105952;28;20161;-71
2022/08/08 08:03:00;;;;;;;3.53;0.73;;;;;;;37.66;22.95;99260.00;5110280;28;20051;-70
2022/08/08 08:05:27;;;;;;;1.75;0.73;;;;;;;38.97;21.93;99275.97;5091364;28;20281;-71
2022/08/08 08:08:05;;;;;;;1.38;0.63;;;;;;;36.95;23.25;99269.75;5109425;28;20023;-68
2022/08/08 08:10:33;;;;;;;1.85;0.80;;;;;;;35.76;24.18;99260.34;5112077;27;20038;-70
2022/08/08 08:13:24;;;;;;;3.20;1.17;;;;;;;36.75;23.86;99258.44;5104577;28;20055;-70
2022/08/08 08:15:56;;;;;;;2.20;0.75;;;;;;;37.52;23.06;99268.19;5110179;28;20299;-70
2022/08/08 08:18:23;;;;;;;0.75;0.65;;;;;;;35.62;24.89;99272.03;5110087;28;20023;-71
2022/08/08 08:20:51;;;;;;;1.27;0.70;;;;;;;35.99;24.48;99258.53;5106596;28;20024;-71
2022/08/08 08:23:16;;;;;;;3.35;0.73;;;;;;;38.20;23.22;99255.34;5087644;28;20428;-70
2022/08/08 08:25:42;;;;;;;2.35;1.10;;;;;;;38.19;22.61;99241.59;5110038;28;20031;-71
2022/08/08 08:28:07;;;;;;;1.00;0.70;;;;;;;37.16;23.65;99269.44;5115451;27;20033;-71
2022/08/08 08:30:34;;;;;;;1.60;0.70;;;;;;;38.58;22.66;99254.34;5103110;28;20294;-72
2022/08/08 08:32:59;;;;;;;3.85;1.45;;;;;;;39.45;21.70;99273.34;5091720;28;20027;-71
2022/08/08 08:35:24;;;;;;;4.18;0.88;;;;;;;39.18;21.96;99264.09;5109236;28;20454;-71
2022/08/08 08:37:50;;;;;;;1.77;1.00;;;;;;;39.80;21.47;99261.66;5109922;28;20053;-71
2022/08/08 08:40:15;;;;;;;1.80;0.83;;;;;;;40.10;21.33;99255.84;5089372;28;20316;-72
2022/08/08 08:42:41;;;;;;;1.88;0.80;;;;;;;39.13;21.83;99253.13;5105260;28;20300;-71
2022/08/08 08:45:07;;;;;;;1.58;0.82;;;;;;;39.84;21.15;99256.81;5116475;27;20039;-71
2022/08/08 08:47:33;;;;;;;7.55;0.85;;;;;;;38.02;23.07;99248.53;5110543;28;20027;-71
2022/08/08 08:49:59;;;;;;;2.67;0.88;;;;;;;38.19;22.53;99252.88;5109509;28;20396;-72
2022/08/08 08:52:25;;;;;;;1.77;0.80;;;;;;;38.66;22.31;99248.81;5103068;28;20024;-70
2022/08/08 08:54:55;;;;;;;3.00;1.00;;;;;;;38.98;22.02;99260.59;5109283;28;20024;-71
2022/08/08 08:57:21;;;;;;;2.70;1.58;;;;;;;38.44;22.41;99259.81;5135629;22;20040;-71
2022/08/08 08:59:48;;;;;;;1.77;0.95;;;;;;;35.77;25.03;99250.72;5102733;28;20383;-72
2022/08/08 09:02:23;;;;;;;1.17;0.90;;;;;;;36.16;25.00;99260.22;5104778;28;20384;-71
2022/08/08 09:04:54;;;;;;;1.70;0.95;;;;;;;38.13;23.42;99256.03;5105490;28;20080;-72
2022/08/08 09:07:23;;;;;;;1.33;1.10;;;;;;;37.65;23.64;99251.88;5100722;28;20504;-71
2022/08/08 09:09:52;;;;;;;2.53;0.85;;;;;;;39.62;21.73;99249.28;5087914;28;22639;-71
2022/08/08 09:12:22;;;;;;;3.67;1.30;;;;;;;38.41;22.89;99257.72;5089489;28;20057;-72
2022/08/08 09:14:50;;;;;;;5.00;1.02;;;;;;;37.64;23.39;99261.56;5095806;28;20028;-71
2022/08/08 09:17:17;;;;;;;2.63;1.20;;;;;;;37.03;23.81;99251.84;5070484;28;20391;-72
2022/08/08 09:19:43;;;;;;;1.63;0.80;;;;;;;37.77;23.53;99250.91;5084069;28;20032;-72
2022/08/08 09:22:09;;;;;;;3.97;0.85;;;;;;;39.15;21.93;99253.56;5079338;28;20051;-71
2022/08/08 09:24:35;;;;;;;2.08;0.85;;;;;;;40.84;21.12;99247.50;5085167;28;20068;-71
2022/08/08 09:27:09;;;;;;;2.97;1.02;;;;;;;40.60;20.88;99246.13;5082443;28;20028;-71
2022/08/08 09:29:46;;;;;;;3.05;0.95;;;;;;;38.42;22.40;99250.84;5072833;28;20028;-72
2022/08/08 09:32:17;;;;;;;1.20;0.90;;;;;;;37.67;23.82;99249.50;5099352;28;20038;-72
2022/08/08 09:34:48;;;;;;;1.30;0.77;;;;;;;38.89;22.31;99251.59;5092376;28;20458;-73
2022/08/08 09:37:17;;;;;;;1.67;0.80;;;;;;;37.01;23.93;99242.88;5115039;28;20029;-72
2022/08/08 09:39:58;;;;;;;2.05;1.00;;;;;;;36.69;23.84;99237.34;5114996;28;20076;-72
2022/08/08 09:42:31;;;;;;;1.70;1.30;;;;;;;35.22;25.04;99241.94;5114744;27;20020;-70
2022/08/08 09:45:04;;;;;;;1.20;1.08;;;;;;;35.88;24.49;99237.75;5107904;28;20047;-70
2022/08/08 09:47:33;;;;;;;4.45;1.10;;;;;;;35.01;25.98;99244.09;5108134;27;20024;-73
2022/08/08 09:50:01;;;;;;;1.75;0.90;;;;;;;35.52;26.07;99239.56;5086206;28;20445;-73
2022/08/08 09:52:31;;;;;;;3.03;1.02;;;;;;;33.74;26.81;99238.34;5075680;28;20044;-73
2022/08/08 09:54:56;;;;;;;2.28;0.82;;;;;;;32.43;27.73;99240.53;5080499;28;20055;-73
2022/08/08 09:57:44;;;;;;;4.47;1.15;;;;;;;31.01;30.51;99239.56;5083205;28;20097;-71
2022/08/08 10:00:12;;;;;;;3.20;0.95;;;;;;;31.38;29.83;99234.47;5083718;28;20028;-71
2022/08/08 10:02:40;;;;;;;2.45;0.73;;;;;;;32.23;28.34;99231.75;5080950;28;20039;-71
2022/08/08 10:05:07;;;;;;;2.92;1.00;;;;;;;31.34;29.23;99227.88;5087089;28;20047;-73
2022/08/08 10:07:33;;;;;;;1.15;0.80;;;;;;;31.51;29.52;99233.44;5066957;28;20525;-71
2022/08/08 10:09:59;;;;;;;5.70;1.30;;;;;;;33.73;27.21;99230.28;5081703;28;20039;-71
2022/08/08 10:12:38;;;;;;;1.67;0.70;;;;;;;35.76;24.74;99223.75;5078737;28;20035;-71
2022/08/08 10:15:07;;;;;;;1.50;1.08;;;;;;;37.63;23.33;99221.22;5087290;28;20603;-71
2022/08/08 10:17:43;;;;;;;0.88;0.60;;;;;;;38.08;22.54;99225.25;5083363;28;20051;-74
2022/08/08 10:20:09;;;;;;;1.92;0.90;;;;;;;39.59;20.96;99216.88;5086728;28;20024;-74
2022/08/08 10:22:49;;;;;;;1.48;0.77;;;;;;;38.41;21.41;99220.97;5063820;28;20050;-74
2022/08/08 10:25:19;;;;;;;3.45;0.50;;;;;;;38.48;19.33;99217.44;5079639;28;20027;-74
2022/08/08 10:27:51;;;;;;;7.40;0.70;;;;;;;40.06;17.74;99206.00;5081909;28;20028;-72
2022/08/08 10:30:16;;;;;;;2.13;0.60;;;;;;;40.48;17.98;99216.06;5082954;28;20039;-73
2022/08/08 10:32:49;;;;;;;1.88;0.70;;;;;;;40.22;18.40;99212.25;5082454;28;20373;-73
2022/08/08 10:35:17;;;;;;;0.50;0.40;;;;;;;40.13;17.40;99210.91;5084362;28;20032;-73
2022/08/08 10:38:03;;;;;;;0.80;0.50;;;;;;;40.02;17.37;99208.81;5081509;28;20035;-73
2022/08/08 10:40:30;;;;;;;4.22;1.38;;;;;;;40.85;16.93;99213.06;5065331;28;20091;-73
2022/08/08 10:43:01;;;;;;;1.17;0.40;;;;;;;39.73;17.06;99221.88;5082957;28;20043;-73
2022/08/08 10:45:27;;;;;;;1.95;0.35;;;;;;;40.21;17.03;99210.59;5086318;28;20027;-73
2022/08/08 10:47:57;;;;;;;1.35;0.40;;;;;;;42.48;14.82;99215.88;5080804;28;20055;-73
2022/08/08 10:50:31;;;;;;;1.10;0.50;;;;;;;39.42;16.93;99212.66;5082553;28;20028;-73
2022/08/08 10:53:02;;;;;;;3.50;0.43;;;;;;;37.57;17.88;99208.59;5078191;28;20029;-73
2022/08/08 10:55:27;;;;;;;1.95;0.40;;;;;;;40.08;16.49;99201.56;5085270;28;20032;-73
2022/08/08 10:57:53;;;;;;;0.70;0.52;;;;;;;40.44;16.56;99204.69;5080483;28;20023;-74
2022/08/08 11:00:25;;;;;;;1.25;0.70;;;;;;;41.79;16.05;99197.16;5082238;28;20109;-73
2022/08/08 11:02:51;;;;;;;2.40;0.68;;;;;;;40.81;16.00;99202.91;5084827;28;20081;-72
2022/08/08 11:05:17;;;;;;;2.60;0.57;;;;;;;39.73;16.62;99204.88;5075804;28;20495;-72
2022/08/08 11:07:48;;;;;;;3.58;0.50;;;;;;;39.76;16.79;99201.25;5082158;28;20036;-72
2022/08/08 11:10:16;;;;;;;4.40;0.55;;;;;;;38.98;16.96;99196.34;5077618;28;20135;-73
2022/08/08 11:12:45;;;;;;;;;;;;;;;39.06;17.83;99202.91;5085093;28;20438;-73
2022/08/08 11:15:18;;;;;;;1.00;0.57;;;;;;;40.41;17.05;99191.31;5081621;28;19927;-73
2022/08/08 11:17:44;;;;;;;3.38;0.50;;;;;;;41.09;16.40;99188.88;5081499;28;20024;-74
2022/08/08 11:20:12;;;;;;;2.42;0.60;;;;;;;42.10;16.11;99189.06;5081195;28;20040;-74
2022/08/08 11:22:38;;;;;;;1.20;0.50;;;;;;;41.28;16.47;99179.19;5081992;28;20042;-74
2022/08/08 11:25:06;;;;;;;0.73;0.50;;;;;;;41.20;16.04;99165.41;5086367;28;20553;-73
2022/08/08 11:27:33;;;;;;;0.73;0.60;;;;;;;40.95;16.97;99181.09;5088586;28;20489;-74
2022/08/08 11:30:00;;;;;;;3.40;0.60;;;;;;;40.18;17.34;99174.50;5092320;28;20032;-74
2022/08/08 11:32:29;;;;;;;1.50;0.80;;;;;;;40.65;17.09;99169.19;5089645;28;20114;-75
2022/08/08 11:35:16;;;;;;;0.73;0.57;;;;;;;41.91;16.50;99171.19;5089071;28;20024;-73
2022/08/08 11:37:42;;;;;;;0.90;0.43;;;;;;;42.78;15.89;99174.75;5097332;28;20035;-73
2022/08/08 11:40:10;;;;;;;1.33;0.60;;;;;;;42.64;15.46;99173.56;5091972;28;20016;-74
2022/08/08 11:42:37;;;;;;;0.85;0.52;;;;;;;41.94;16.04;99170.41;5090857;28;20031;-75
2022/08/08 11:45:08;;;;;;;0.77;0.40;;;;;;;41.34;16.86;99173.94;5088720;28;20536;-73
2022/08/08 11:47:34;;;;;;;4.30;0.70;;;;;;;41.04;16.81;99166.53;5065830;28;20035;-75
2022/08/08 11:50:02;;;;;;;1.33;0.52;;;;;;;40.08;17.62;99169.56;5062487;28;20050;-74
2022/08/08 11:52:29;;;;;;;0.70;0.43;;;;;;;39.03;18.16;99166.06;5089865;28;20031;-74
2022/08/08 11:54:54;;;;;;;1.65;0.60;;;;;;;39.22;17.60;99168.72;5067775;28;20090;-74
2022/08/08 11:57:25;;;;;;;1.20;0.57;;;;;;;40.26;17.49;99155.56;5089365;28;20021;-72
2022/08/08 11:59:50;;;;;;;2.33;0.73;;;;;;;40.43;17.63;99163.38;5086900;28;20028;-72
2022/08/08 12:02:15;;;;;;;2.33;0.50;;;;;;;41.25;16.69;99167.84;5090493;28;20474;-73
2022/08/08 12:04:41;;;;;;;0.70;0.60;;;;;;;41.44;16.12;99153.25;5088788;28;20039;-74